createdAt,value
2017-01-29T00:00:26.924Z,0
2017-01-29T00:01:35.018Z,0
2017-01-29T00:02:43.104Z,0
2017-01-29T00:03:51.208Z,0
2017-01-29T00:04:59.290Z,0
2017-01-29T00:06:07.380Z,0
2017-01-29T00:07:15.469Z,0
2017-01-29T00:08:23.563Z,0
2017-01-29T00:09:31.656Z,0
2017-01-29T00:10:39.744Z,0
2017-01-29T00:11:47.833Z,0
2017-01-29T00:12:55.930Z,0
2017-01-29T00:14:04.021Z,0
2017-01-29T00:15:12.109Z,0
2017-01-29T00:16:20.206Z,0
2017-01-29T00:17:28.382Z,0
2017-01-29T00:18:36.380Z,0
2017-01-29T00:19:44.468Z,0
2017-01-29T00:20:52.597Z,0
2017-01-29T00:22:00.665Z,0
2017-01-29T00:23:08.751Z,0
2017-01-29T00:24:16.843Z,0
2017-01-29T00:25:24.932Z,0
2017-01-29T00:26:33.021Z,0
2017-01-29T00:27:41.111Z,0
2017-01-29T00:28:49.206Z,0
2017-01-29T00:29:57.299Z,0
2017-01-29T00:31:05.388Z,0
2017-01-29T00:32:13.486Z,0
2017-01-29T00:33:21.584Z,0
2017-01-29T00:34:29.679Z,0
2017-01-29T00:35:37.771Z,0
2017-01-29T00:36:45.861Z,0
2017-01-29T00:37:53.949Z,0
2017-01-29T00:39:02.031Z,0
2017-01-29T00:40:10.133Z,0
2017-01-29T00:41:18.223Z,0
2017-01-29T00:42:26.305Z,0
2017-01-29T00:43:34.402Z,0
2017-01-29T00:44:42.489Z,0
2017-01-29T00:45:50.583Z,0
2017-01-29T00:46:58.663Z,0
2017-01-29T00:48:06.753Z,0
2017-01-29T00:49:14.844Z,0
2017-01-29T00:50:22.932Z,0
2017-01-29T00:51:31.023Z,0
2017-01-29T00:52:39.111Z,0
2017-01-29T00:53:47.205Z,0
2017-01-29T00:54:55.290Z,0
2017-01-29T00:56:03.383Z,0
2017-01-29T00:57:11.474Z,0
2017-01-29T00:58:19.559Z,0
2017-01-29T00:59:27.653Z,0
2017-01-29T01:00:35.741Z,0
2017-01-29T01:01:43.828Z,0
2017-01-29T01:02:51.913Z,0
2017-01-29T01:04:00.008Z,0
2017-01-29T01:05:08.092Z,0
2017-01-29T01:06:16.180Z,0
2017-01-29T01:07:24.281Z,0
2017-01-29T01:08:32.371Z,0
2017-01-29T01:09:40.460Z,0
2017-01-29T01:10:48.544Z,0
2017-01-29T01:11:56.638Z,0
2017-01-29T01:13:04.725Z,0
2017-01-29T01:14:12.809Z,0
2017-01-29T01:15:20.907Z,0
2017-01-29T01:16:28.992Z,0
2017-01-29T01:17:37.076Z,0
2017-01-29T01:18:45.164Z,0
2017-01-29T01:19:53.279Z,0
2017-01-29T01:21:01.342Z,0
2017-01-29T01:22:09.440Z,0
2017-01-29T01:23:17.531Z,0
2017-01-29T01:24:25.622Z,0
2017-01-29T01:25:33.711Z,0
2017-01-29T01:26:41.801Z,0
2017-01-29T01:27:49.920Z,0
2017-01-29T01:28:57.983Z,0
2017-01-29T01:30:06.072Z,0
2017-01-29T01:31:14.168Z,0
2017-01-29T01:32:22.251Z,0
2017-01-29T01:33:30.351Z,0
2017-01-29T01:34:38.435Z,0
2017-01-29T01:35:46.518Z,0
2017-01-29T01:36:54.620Z,0
2017-01-29T01:38:02.704Z,0
2017-01-29T01:39:10.800Z,0
2017-01-29T01:40:18.896Z,0
2017-01-29T01:41:26.980Z,0
2017-01-29T01:42:35.068Z,0
2017-01-29T01:43:43.156Z,0
2017-01-29T01:44:51.245Z,0
2017-01-29T01:45:59.332Z,0
2017-01-29T01:47:07.428Z,0
2017-01-29T01:48:15.519Z,0
2017-01-29T01:49:23.611Z,0
2017-01-29T01:50:31.696Z,0
2017-01-29T01:51:39.780Z,0
2017-01-29T01:52:47.864Z,0
2017-01-29T01:53:55.959Z,0
2017-01-29T01:55:04.063Z,0
2017-01-29T01:56:12.148Z,0
2017-01-29T01:57:20.232Z,0
2017-01-29T01:58:28.395Z,0
2017-01-29T01:59:36.418Z,0
2017-01-29T02:00:44.505Z,0
2017-01-29T02:01:52.589Z,0
2017-01-29T02:03:00.680Z,0
2017-01-29T02:04:08.767Z,0
2017-01-29T02:05:16.851Z,0
2017-01-29T02:06:24.939Z,0
2017-01-29T02:07:33.031Z,0
2017-01-29T02:08:41.120Z,0
2017-01-29T02:09:49.204Z,0
2017-01-29T02:10:57.298Z,0
2017-01-29T02:12:05.381Z,0
2017-01-29T02:13:13.469Z,0
2017-01-29T02:14:21.556Z,0
2017-01-29T02:15:29.703Z,0
2017-01-29T02:16:37.731Z,0
2017-01-29T02:17:45.822Z,0
2017-01-29T02:18:53.910Z,0
2017-01-29T02:20:02.001Z,0
2017-01-29T02:21:10.082Z,0
2017-01-29T02:22:18.174Z,0
2017-01-29T02:23:26.264Z,0
2017-01-29T02:24:34.351Z,0
2017-01-29T02:25:42.434Z,0
2017-01-29T02:26:50.523Z,0
2017-01-29T02:27:58.612Z,0
2017-01-29T02:29:06.696Z,0
2017-01-29T02:30:14.787Z,0
2017-01-29T02:31:22.884Z,0
2017-01-29T02:32:31.002Z,0
2017-01-29T02:33:39.051Z,0
2017-01-29T02:34:47.142Z,0
2017-01-29T02:35:55.226Z,0
2017-01-29T02:37:03.315Z,0
2017-01-29T02:38:11.402Z,0
2017-01-29T02:39:19.517Z,0
2017-01-29T02:40:27.580Z,0
2017-01-29T02:41:35.668Z,0
2017-01-29T02:42:43.760Z,0
2017-01-29T02:43:51.846Z,0
2017-01-29T02:44:59.928Z,0
2017-01-29T02:46:08.017Z,0
2017-01-29T02:47:16.106Z,0
2017-01-29T02:48:24.197Z,0
2017-01-29T02:49:32.287Z,0
2017-01-29T02:50:40.379Z,0
2017-01-29T02:51:48.497Z,0
2017-01-29T02:52:56.553Z,0
2017-01-29T02:54:04.645Z,0
2017-01-29T02:55:12.736Z,0
2017-01-29T02:56:20.818Z,0
2017-01-29T02:57:28.909Z,0
2017-01-29T02:58:36.994Z,0
2017-01-29T02:59:45.081Z,0
2017-01-29T03:00:53.170Z,0
2017-01-29T03:02:01.254Z,0
2017-01-29T03:03:09.340Z,0
2017-01-29T03:04:17.430Z,0
2017-01-29T03:05:25.522Z,0
2017-01-29T03:06:33.610Z,0
2017-01-29T03:07:41.693Z,0
2017-01-29T03:08:49.779Z,0
2017-01-29T03:09:57.867Z,0
2017-01-29T03:11:05.955Z,0
2017-01-29T03:12:14.086Z,0
2017-01-29T03:13:22.135Z,0
2017-01-29T03:14:30.225Z,0
2017-01-29T03:15:38.306Z,0
2017-01-29T03:16:46.399Z,0
2017-01-29T03:17:54.492Z,0
2017-01-29T03:19:02.581Z,0
2017-01-29T03:20:10.662Z,0
2017-01-29T03:21:18.753Z,0
2017-01-29T03:22:26.847Z,0
2017-01-29T03:23:34.926Z,0
2017-01-29T03:24:43.014Z,0
2017-01-29T03:25:51.100Z,0
2017-01-29T03:26:59.186Z,0
2017-01-29T03:28:07.272Z,0
2017-01-29T03:29:15.362Z,0
2017-01-29T03:30:23.451Z,0
2017-01-29T03:31:31.536Z,0
2017-01-29T03:32:39.623Z,0
2017-01-29T03:33:47.713Z,0
2017-01-29T03:34:55.799Z,0
2017-01-29T03:36:03.887Z,0
2017-01-29T03:37:11.976Z,0
2017-01-29T03:38:20.103Z,0
2017-01-29T03:39:28.144Z,0
2017-01-29T03:40:36.236Z,0
2017-01-29T03:41:44.327Z,0
2017-01-29T03:42:52.409Z,0
2017-01-29T03:44:00.498Z,0
2017-01-29T03:45:08.590Z,0
2017-01-29T03:46:16.684Z,0
2017-01-29T03:47:24.772Z,0
2017-01-29T03:48:32.855Z,0
2017-01-29T03:49:40.943Z,0
2017-01-29T03:50:49.033Z,0
2017-01-29T03:51:57.114Z,0
2017-01-29T03:53:05.206Z,0
2017-01-29T03:54:13.295Z,0
2017-01-29T03:55:21.375Z,0
2017-01-29T03:56:29.465Z,0
2017-01-29T03:57:37.560Z,0
2017-01-29T03:58:45.646Z,0
2017-01-29T03:59:53.730Z,0
2017-01-29T04:01:01.823Z,0
2017-01-29T04:02:09.913Z,0
2017-01-29T04:03:17.989Z,0
2017-01-29T04:04:26.081Z,0
2017-01-29T04:05:34.170Z,0
2017-01-29T04:06:42.250Z,0
2017-01-29T04:07:50.343Z,0
2017-01-29T04:08:58.436Z,0
2017-01-29T04:10:06.602Z,0
2017-01-29T04:11:14.607Z,0
2017-01-29T04:12:22.695Z,0
2017-01-29T04:13:30.783Z,0
2017-01-29T04:14:38.952Z,0
2017-01-29T04:15:46.948Z,0
2017-01-29T04:16:55.036Z,0
2017-01-29T04:18:03.121Z,0
2017-01-29T04:19:11.210Z,0
2017-01-29T04:20:19.306Z,0
2017-01-29T04:21:27.392Z,0
2017-01-29T04:22:35.475Z,0
2017-01-29T04:23:43.561Z,0
2017-01-29T04:24:51.654Z,0
2017-01-29T04:25:59.740Z,0
2017-01-29T04:27:07.833Z,0
2017-01-29T04:28:15.917Z,0
2017-01-29T04:29:24.004Z,0
2017-01-29T04:30:32.085Z,0
2017-01-29T04:31:40.173Z,0
2017-01-29T04:32:48.263Z,0
2017-01-29T04:33:56.350Z,0
2017-01-29T04:35:04.431Z,0
2017-01-29T04:36:12.518Z,0
2017-01-29T04:37:20.604Z,0
2017-01-29T04:38:28.692Z,0
2017-01-29T04:39:36.774Z,0
2017-01-29T04:40:44.865Z,0
2017-01-29T04:41:52.953Z,0
2017-01-29T04:43:01.037Z,0
2017-01-29T04:44:09.126Z,0
2017-01-29T04:45:17.225Z,0
2017-01-29T04:46:25.318Z,0
2017-01-29T04:47:33.399Z,0
2017-01-29T04:48:41.500Z,0
2017-01-29T04:49:49.577Z,0
2017-01-29T04:50:57.664Z,0
2017-01-29T04:52:05.757Z,0
2017-01-29T04:53:13.849Z,0
2017-01-29T04:54:21.928Z,0
2017-01-29T04:55:30.014Z,0
2017-01-29T04:56:38.110Z,0
2017-01-29T04:57:46.194Z,0
2017-01-29T04:58:54.277Z,0
2017-01-29T05:00:02.367Z,0
2017-01-29T05:01:10.453Z,0
2017-01-29T05:02:18.536Z,0
2017-01-29T05:03:26.619Z,0
2017-01-29T05:04:34.735Z,0
2017-01-29T05:05:42.795Z,0
2017-01-29T05:06:50.886Z,0
2017-01-29T05:07:58.972Z,0
2017-01-29T05:09:07.058Z,0
2017-01-29T05:10:15.143Z,0
2017-01-29T05:11:23.227Z,0
2017-01-29T05:12:31.316Z,0
2017-01-29T05:13:39.401Z,0
2017-01-29T05:14:47.484Z,0
2017-01-29T05:15:55.579Z,0
2017-01-29T05:17:03.660Z,0
2017-01-29T05:18:11.773Z,0
2017-01-29T05:19:19.832Z,0
2017-01-29T05:20:27.917Z,0
2017-01-29T05:21:36.002Z,0
2017-01-29T05:22:44.084Z,0
2017-01-29T05:23:52.172Z,0
2017-01-29T05:25:00.264Z,0
2017-01-29T05:26:08.349Z,0
2017-01-29T05:27:16.438Z,0
2017-01-29T05:28:24.524Z,0
2017-01-29T05:29:32.608Z,0
2017-01-29T05:30:40.697Z,0
2017-01-29T05:31:48.785Z,0
2017-01-29T05:32:56.872Z,0
2017-01-29T05:34:04.950Z,0
2017-01-29T05:35:13.058Z,0
2017-01-29T05:36:21.133Z,0
2017-01-29T05:37:29.226Z,0
2017-01-29T05:38:37.303Z,0
2017-01-29T05:39:45.394Z,0
2017-01-29T05:40:53.477Z,0
2017-01-29T05:42:01.562Z,0
2017-01-29T05:43:09.648Z,0
2017-01-29T05:44:17.733Z,0
2017-01-29T05:45:25.818Z,0
2017-01-29T05:46:33.908Z,0
2017-01-29T05:47:41.995Z,0
2017-01-29T05:48:50.086Z,0
2017-01-29T05:49:58.167Z,0
2017-01-29T05:51:06.254Z,0
2017-01-29T05:52:14.342Z,0
2017-01-29T05:53:22.426Z,0
2017-01-29T05:54:30.515Z,0
2017-01-29T05:55:38.604Z,0
2017-01-29T05:56:46.695Z,0
2017-01-29T05:57:54.776Z,0
2017-01-29T05:59:02.862Z,0
2017-01-29T06:00:10.949Z,0
2017-01-29T06:01:19.034Z,0
2017-01-29T06:02:27.117Z,0
2017-01-29T06:03:35.207Z,0
2017-01-29T06:04:43.289Z,0
2017-01-29T06:05:51.374Z,0
2017-01-29T06:06:59.460Z,0
2017-01-29T06:08:07.552Z,0
2017-01-29T06:09:15.632Z,0
2017-01-29T06:10:23.932Z,0
2017-01-29T06:11:31.807Z,0
2017-01-29T06:12:39.892Z,0
2017-01-29T06:13:48.596Z,0
2017-01-29T06:14:56.067Z,0
2017-01-29T06:16:04.149Z,0
2017-01-29T06:17:12.229Z,0
2017-01-29T06:18:20.319Z,0
2017-01-29T06:19:28.410Z,0
2017-01-29T06:20:36.494Z,0
2017-01-29T06:21:44.585Z,0
2017-01-29T06:22:52.671Z,0
2017-01-29T06:24:00.766Z,0
2017-01-29T06:25:08.863Z,0
2017-01-29T06:26:16.945Z,0
2017-01-29T06:27:25.032Z,0
2017-01-29T06:28:33.114Z,0
2017-01-29T06:29:41.199Z,0
2017-01-29T06:30:49.288Z,0
2017-01-29T06:31:57.373Z,0
2017-01-29T06:33:05.453Z,0
2017-01-29T06:34:13.543Z,0
2017-01-29T06:35:21.628Z,0
2017-01-29T06:36:29.716Z,0
2017-01-29T06:37:37.799Z,0
2017-01-29T06:38:45.885Z,0
2017-01-29T06:39:53.975Z,0
2017-01-29T06:41:02.059Z,0
2017-01-29T06:42:10.148Z,0
2017-01-29T06:43:18.234Z,0
2017-01-29T06:44:26.316Z,0
2017-01-29T06:45:34.410Z,0
2017-01-29T06:46:42.502Z,0
2017-01-29T06:47:50.589Z,0
2017-01-29T06:48:58.674Z,0
2017-01-29T06:50:06.758Z,0
2017-01-29T06:51:14.843Z,0
2017-01-29T06:52:22.951Z,0
2017-01-29T06:53:31.011Z,0
2017-01-29T06:54:39.099Z,4
2017-01-29T06:55:47.184Z,4
2017-01-29T06:56:55.265Z,4
2017-01-29T06:58:03.362Z,0
2017-01-29T06:59:11.446Z,0
2017-01-29T07:00:19.530Z,0
2017-01-29T07:01:27.618Z,0
2017-01-29T07:02:35.706Z,0
2017-01-29T07:03:43.793Z,4
2017-01-29T07:04:51.880Z,4
2017-01-29T07:05:59.969Z,4
2017-01-29T07:07:08.060Z,4
2017-01-29T07:08:16.144Z,0
2017-01-29T07:09:24.260Z,0
2017-01-29T07:10:32.323Z,4
2017-01-29T07:11:40.408Z,4
2017-01-29T07:12:48.495Z,4
2017-01-29T07:13:56.582Z,4
2017-01-29T07:15:04.669Z,4
2017-01-29T07:16:12.750Z,0
2017-01-29T07:17:20.839Z,4
2017-01-29T07:18:28.931Z,4
2017-01-29T07:19:37.011Z,4
2017-01-29T07:20:45.099Z,4
2017-01-29T07:21:53.189Z,8
2017-01-29T07:23:01.275Z,4
2017-01-29T07:24:09.359Z,4
2017-01-29T07:25:17.457Z,4
2017-01-29T07:26:25.539Z,8
2017-01-29T07:27:33.627Z,4
2017-01-29T07:28:41.710Z,4
2017-01-29T07:29:49.800Z,4
2017-01-29T07:30:57.887Z,8
2017-01-29T07:32:05.968Z,4
2017-01-29T07:33:14.066Z,8
2017-01-29T07:34:22.150Z,8
2017-01-29T07:35:30.242Z,8
2017-01-29T07:36:38.322Z,8
2017-01-29T07:37:46.411Z,8
2017-01-29T07:38:54.497Z,12
2017-01-29T07:40:02.583Z,8
2017-01-29T07:41:10.672Z,8
2017-01-29T07:42:18.760Z,8
2017-01-29T07:43:26.844Z,8
2017-01-29T07:44:34.929Z,8
2017-01-29T07:45:43.018Z,8
2017-01-29T07:46:51.106Z,8
2017-01-29T07:47:59.191Z,12
2017-01-29T07:49:07.278Z,8
2017-01-29T07:50:15.372Z,12
2017-01-29T07:51:23.457Z,12
2017-01-29T07:52:31.539Z,12
2017-01-29T07:53:39.630Z,12
2017-01-29T07:54:47.716Z,12
2017-01-29T07:55:55.800Z,16
2017-01-29T07:57:03.889Z,12
2017-01-29T07:58:11.976Z,12
2017-01-29T07:59:20.064Z,16
2017-01-29T08:00:28.149Z,12
2017-01-29T08:01:36.259Z,12
2017-01-29T08:02:44.321Z,16
2017-01-29T08:03:52.411Z,16
2017-01-29T08:05:00.501Z,16
2017-01-29T08:06:08.596Z,16
2017-01-29T08:07:16.678Z,16
2017-01-29T08:08:24.766Z,16
2017-01-29T08:09:32.858Z,16
2017-01-29T08:10:40.944Z,16
2017-01-29T08:11:49.027Z,16
2017-01-29T08:12:57.119Z,16
2017-01-29T08:14:05.213Z,16
2017-01-29T08:15:13.292Z,16
2017-01-29T08:16:21.383Z,16
2017-01-29T08:17:29.484Z,16
2017-01-29T08:18:37.555Z,16
2017-01-29T08:19:45.644Z,20
2017-01-29T08:20:53.735Z,20
2017-01-29T08:22:01.828Z,20
2017-01-29T08:23:09.919Z,20
2017-01-29T08:24:18.002Z,20
2017-01-29T08:25:26.244Z,20
2017-01-29T08:26:34.185Z,20
2017-01-29T08:27:42.268Z,20
2017-01-29T08:28:50.357Z,20
2017-01-29T08:29:58.445Z,20
2017-01-29T08:31:06.529Z,20
2017-01-29T08:32:14.616Z,24
2017-01-29T08:33:22.706Z,20
2017-01-29T08:34:30.793Z,24
2017-01-29T08:35:38.887Z,24
2017-01-29T08:36:46.976Z,20
2017-01-29T08:37:55.155Z,24
2017-01-29T08:39:03.149Z,24
2017-01-29T08:40:11.242Z,24
2017-01-29T08:41:19.329Z,24
2017-01-29T08:42:27.410Z,24
2017-01-29T08:43:35.508Z,24
2017-01-29T08:44:43.598Z,28
2017-01-29T08:45:51.689Z,28
2017-01-29T08:46:59.781Z,28
2017-01-29T08:48:07.869Z,24
2017-01-29T08:49:15.958Z,24
2017-01-29T08:50:24.046Z,24
2017-01-29T08:51:32.127Z,24
2017-01-29T08:52:40.223Z,28
2017-01-29T08:53:48.304Z,28
2017-01-29T08:54:56.456Z,28
2017-01-29T08:56:04.481Z,32
2017-01-29T08:57:12.564Z,36
2017-01-29T08:58:20.655Z,36
2017-01-29T08:59:28.738Z,40
2017-01-29T09:00:36.830Z,40
2017-01-29T09:01:44.922Z,32
2017-01-29T09:02:53.007Z,32
2017-01-29T09:04:01.098Z,28
2017-01-29T09:05:09.191Z,32
2017-01-29T09:06:17.276Z,32
2017-01-29T09:07:25.364Z,32
2017-01-29T09:08:33.459Z,32
2017-01-29T09:09:41.548Z,32
2017-01-29T09:10:49.635Z,32
2017-01-29T09:11:57.729Z,32
2017-01-29T09:13:05.815Z,32
2017-01-29T09:14:13.904Z,32
2017-01-29T09:15:21.990Z,32
2017-01-29T09:16:30.080Z,32
2017-01-29T09:17:38.168Z,32
2017-01-29T09:18:46.267Z,32
2017-01-29T09:19:54.354Z,32
2017-01-29T09:21:02.444Z,36
2017-01-29T09:22:10.530Z,36
2017-01-29T09:23:18.618Z,32
2017-01-29T09:24:26.709Z,36
2017-01-29T09:25:34.875Z,32
2017-01-29T09:26:42.886Z,36
2017-01-29T09:27:50.979Z,36
2017-01-29T09:28:59.081Z,40
2017-01-29T09:30:07.158Z,36
2017-01-29T09:31:15.243Z,36
2017-01-29T09:32:23.337Z,40
2017-01-29T09:33:31.424Z,36
2017-01-29T09:34:39.510Z,40
2017-01-29T09:35:47.604Z,40
2017-01-29T09:36:55.693Z,40
2017-01-29T09:38:03.785Z,40
2017-01-29T09:39:11.869Z,40
2017-01-29T09:40:19.959Z,40
2017-01-29T09:41:28.081Z,44
2017-01-29T09:42:36.145Z,40
2017-01-29T09:43:44.235Z,44
2017-01-29T09:44:52.324Z,40
2017-01-29T09:46:00.410Z,44
2017-01-29T09:47:08.499Z,40
2017-01-29T09:48:16.590Z,44
2017-01-29T09:49:24.686Z,44
2017-01-29T09:50:32.766Z,40
2017-01-29T09:51:40.860Z,44
2017-01-29T09:52:48.956Z,44
2017-01-29T09:53:57.046Z,44
2017-01-29T09:55:05.137Z,40
2017-01-29T09:56:13.230Z,44
2017-01-29T09:57:21.323Z,44
2017-01-29T09:58:29.405Z,44
2017-01-29T09:59:37.497Z,44
2017-01-29T10:00:45.588Z,44
2017-01-29T10:01:53.684Z,44
2017-01-29T10:03:01.772Z,44
2017-01-29T10:04:09.862Z,44
2017-01-29T10:05:17.950Z,44
2017-01-29T10:06:26.038Z,44
2017-01-29T10:07:34.136Z,44
2017-01-29T10:08:42.226Z,44
2017-01-29T10:09:50.311Z,44
2017-01-29T10:10:58.409Z,44
2017-01-29T10:12:06.504Z,44
2017-01-29T10:13:14.595Z,44
2017-01-29T10:14:22.675Z,44
2017-01-29T10:15:30.770Z,44
2017-01-29T10:16:38.857Z,44
2017-01-29T10:17:46.948Z,44
2017-01-29T10:18:55.036Z,44
2017-01-29T10:20:03.130Z,44
2017-01-29T10:21:11.215Z,44
2017-01-29T10:22:19.303Z,44
2017-01-29T10:23:27.398Z,44
2017-01-29T10:24:35.488Z,44
2017-01-29T10:25:43.578Z,44
2017-01-29T10:26:51.667Z,44
2017-01-29T10:27:59.758Z,44
2017-01-29T10:29:07.845Z,44
2017-01-29T10:30:15.933Z,44
2017-01-29T10:31:24.030Z,44
2017-01-29T10:32:32.119Z,44
2017-01-29T10:33:40.204Z,44
2017-01-29T10:34:48.296Z,44
2017-01-29T10:35:56.388Z,44
2017-01-29T10:37:04.488Z,44
2017-01-29T10:38:12.576Z,44
2017-01-29T10:39:20.673Z,44
2017-01-29T10:40:28.763Z,40
2017-01-29T10:41:36.848Z,44
2017-01-29T10:42:44.939Z,44
2017-01-29T10:43:53.032Z,40
2017-01-29T10:45:01.118Z,40
2017-01-29T10:46:09.207Z,36
2017-01-29T10:47:17.300Z,36
2017-01-29T10:48:25.394Z,40
2017-01-29T10:49:33.484Z,44
2017-01-29T10:50:41.602Z,40
2017-01-29T10:51:49.668Z,40
2017-01-29T10:52:57.752Z,44
2017-01-29T10:54:05.846Z,40
2017-01-29T10:55:13.965Z,44
2017-01-29T10:56:22.029Z,44
2017-01-29T10:57:30.117Z,40
2017-01-29T10:58:38.210Z,40
2017-01-29T10:59:46.305Z,40
2017-01-29T11:00:54.398Z,40
2017-01-29T11:02:02.487Z,40
2017-01-29T11:03:10.579Z,40
2017-01-29T11:04:18.667Z,40
2017-01-29T11:05:26.752Z,40
2017-01-29T11:06:34.847Z,40
2017-01-29T11:07:42.937Z,40
2017-01-29T11:08:51.024Z,40
2017-01-29T11:09:59.139Z,40
2017-01-29T11:11:07.206Z,40
2017-01-29T11:12:15.304Z,40
2017-01-29T11:13:23.385Z,40
2017-01-29T11:14:31.480Z,40
2017-01-29T11:15:39.574Z,40
2017-01-29T11:16:47.655Z,40
2017-01-29T11:17:55.752Z,36
2017-01-29T11:19:03.845Z,40
2017-01-29T11:20:11.927Z,36
2017-01-29T11:21:20.018Z,36
2017-01-29T11:22:28.110Z,40
2017-01-29T11:23:36.202Z,40
2017-01-29T11:24:44.291Z,36
2017-01-29T11:25:52.381Z,40
2017-01-29T11:27:00.476Z,36
2017-01-29T11:28:08.566Z,40
2017-01-29T11:29:16.646Z,36
2017-01-29T11:30:24.748Z,36
2017-01-29T11:31:32.833Z,40
2017-01-29T11:32:40.953Z,36
2017-01-29T11:33:49.019Z,36
2017-01-29T11:34:57.110Z,36
2017-01-29T11:36:05.197Z,36
2017-01-29T11:37:13.285Z,36
2017-01-29T11:38:21.407Z,32
2017-01-29T11:39:29.471Z,36
2017-01-29T11:40:37.667Z,36
2017-01-29T11:41:45.656Z,32
2017-01-29T11:42:53.742Z,36
2017-01-29T11:44:01.836Z,36
2017-01-29T11:45:09.923Z,32
2017-01-29T11:46:18.015Z,36
2017-01-29T11:47:26.109Z,36
2017-01-29T11:48:34.197Z,36
2017-01-29T11:49:42.290Z,32
2017-01-29T11:50:50.381Z,32
2017-01-29T11:51:58.475Z,36
2017-01-29T11:53:06.565Z,32
2017-01-29T11:54:14.654Z,36
2017-01-29T11:55:22.773Z,32
2017-01-29T11:56:30.831Z,36
2017-01-29T11:57:38.945Z,36
2017-01-29T11:58:47.032Z,32
2017-01-29T11:59:55.121Z,36
2017-01-29T12:01:03.203Z,32
2017-01-29T12:02:11.298Z,32
2017-01-29T12:03:19.390Z,32
2017-01-29T12:04:27.478Z,32
2017-01-29T12:05:35.778Z,32
2017-01-29T12:06:43.658Z,32
2017-01-29T12:07:51.746Z,32
2017-01-29T12:08:59.847Z,32
2017-01-29T12:10:07.930Z,32
2017-01-29T12:11:16.028Z,32
2017-01-29T12:12:24.109Z,32
2017-01-29T12:13:32.205Z,32
2017-01-29T12:14:40.300Z,32
2017-01-29T12:15:48.385Z,32
2017-01-29T12:16:56.473Z,32
2017-01-29T12:18:04.563Z,36
2017-01-29T12:19:12.653Z,32
2017-01-29T12:20:20.746Z,36
2017-01-29T12:21:28.836Z,32
2017-01-29T12:22:36.928Z,32
2017-01-29T12:23:45.019Z,32
2017-01-29T12:24:53.117Z,32
2017-01-29T12:26:01.206Z,32
2017-01-29T12:27:09.301Z,32
2017-01-29T12:28:17.390Z,32
2017-01-29T12:29:25.480Z,32
2017-01-29T12:30:33.573Z,32
2017-01-29T12:31:41.655Z,32
2017-01-29T12:32:49.749Z,28
2017-01-29T12:33:57.849Z,32
2017-01-29T12:35:05.938Z,32
2017-01-29T12:36:14.031Z,32
2017-01-29T12:37:22.119Z,28
2017-01-29T12:38:30.211Z,28
2017-01-29T12:39:38.294Z,28
2017-01-29T12:40:46.389Z,32
2017-01-29T12:41:54.484Z,32
2017-01-29T12:43:02.562Z,32
2017-01-29T12:44:10.651Z,32
2017-01-29T12:45:18.744Z,32
2017-01-29T12:46:26.832Z,32
2017-01-29T12:47:34.918Z,28
2017-01-29T12:48:43.012Z,28
2017-01-29T12:49:51.103Z,32
2017-01-29T12:50:59.194Z,32
2017-01-29T12:52:07.279Z,32
2017-01-29T12:53:15.373Z,32
2017-01-29T12:54:23.467Z,32
2017-01-29T12:55:31.558Z,32
2017-01-29T12:56:39.647Z,36
2017-01-29T12:57:47.737Z,36
2017-01-29T12:58:55.825Z,36
2017-01-29T13:00:03.914Z,32
2017-01-29T13:01:12.007Z,36
2017-01-29T13:02:20.097Z,32
2017-01-29T13:03:28.184Z,36
2017-01-29T13:04:36.276Z,36
2017-01-29T13:05:44.368Z,36
2017-01-29T13:06:52.452Z,32
2017-01-29T13:08:00.540Z,32
2017-01-29T13:09:08.637Z,32
2017-01-29T13:10:16.728Z,36
2017-01-29T13:11:24.814Z,32
2017-01-29T13:12:32.908Z,32
2017-01-29T13:13:40.996Z,32
2017-01-29T13:14:49.084Z,32
2017-01-29T13:15:57.171Z,32
2017-01-29T13:17:05.276Z,32
2017-01-29T13:18:13.363Z,36
2017-01-29T13:19:21.468Z,32
2017-01-29T13:20:29.561Z,32
2017-01-29T13:21:37.653Z,32
2017-01-29T13:22:45.738Z,32
2017-01-29T13:23:54.072Z,32
2017-01-29T13:25:01.932Z,32
2017-01-29T13:26:10.023Z,32
2017-01-29T13:27:18.108Z,28
2017-01-29T13:28:26.203Z,32
2017-01-29T13:29:34.296Z,32
2017-01-29T13:30:42.380Z,28
2017-01-29T13:31:50.475Z,28
2017-01-29T13:32:58.568Z,32
2017-01-29T13:34:06.661Z,28
2017-01-29T13:35:14.753Z,28
2017-01-29T13:36:22.852Z,28
2017-01-29T13:37:30.983Z,28
2017-01-29T13:38:39.035Z,24
2017-01-29T13:39:47.603Z,28
2017-01-29T13:40:55.217Z,28
2017-01-29T13:42:03.305Z,28
2017-01-29T13:43:11.396Z,28
2017-01-29T13:44:19.487Z,28
2017-01-29T13:45:27.580Z,24
2017-01-29T13:46:35.663Z,24
2017-01-29T13:47:43.762Z,28
2017-01-29T13:48:51.899Z,24
2017-01-29T13:49:59.943Z,24
2017-01-29T13:51:08.035Z,24
2017-01-29T13:52:16.221Z,28
2017-01-29T13:53:24.225Z,24
2017-01-29T13:54:32.314Z,24
2017-01-29T13:55:40.404Z,24
2017-01-29T13:56:48.499Z,24
2017-01-29T13:57:56.581Z,28
2017-01-29T13:59:04.674Z,24
2017-01-29T14:00:12.765Z,24
2017-01-29T14:01:20.855Z,24
2017-01-29T14:02:28.954Z,28
2017-01-29T14:03:37.042Z,24
2017-01-29T14:04:45.134Z,24
2017-01-29T14:05:53.225Z,28
2017-01-29T14:07:01.315Z,24
2017-01-29T14:08:09.412Z,24
2017-01-29T14:09:17.507Z,24
2017-01-29T14:10:25.593Z,24
2017-01-29T14:11:33.690Z,28
2017-01-29T14:12:41.779Z,32
2017-01-29T14:13:49.874Z,28
2017-01-29T14:14:57.958Z,28
2017-01-29T14:16:06.053Z,32
2017-01-29T14:17:14.146Z,32
2017-01-29T14:18:22.232Z,36
2017-01-29T14:19:30.331Z,36
2017-01-29T14:20:38.433Z,40
2017-01-29T14:21:46.518Z,40
2017-01-29T14:22:54.610Z,36
2017-01-29T14:24:02.701Z,40
2017-01-29T14:25:10.792Z,36
2017-01-29T14:26:18.882Z,40
2017-01-29T14:27:26.973Z,36
2017-01-29T14:28:35.071Z,32
2017-01-29T14:29:43.158Z,36
2017-01-29T14:30:51.253Z,36
2017-01-29T14:31:59.349Z,36
2017-01-29T14:33:07.439Z,36
2017-01-29T14:34:15.523Z,40
2017-01-29T14:35:23.620Z,36
2017-01-29T14:36:31.710Z,40
2017-01-29T14:37:39.801Z,40
2017-01-29T14:38:47.887Z,44
2017-01-29T14:39:55.981Z,44
2017-01-29T14:41:04.077Z,40
2017-01-29T14:42:12.158Z,32
2017-01-29T14:43:20.258Z,40
2017-01-29T14:44:28.348Z,44
2017-01-29T14:45:36.434Z,40
2017-01-29T14:46:44.531Z,36
2017-01-29T14:47:52.628Z,36
2017-01-29T14:49:00.719Z,36
2017-01-29T14:50:08.810Z,32
2017-01-29T14:51:16.909Z,28
2017-01-29T14:52:24.995Z,28
2017-01-29T14:53:33.079Z,24
2017-01-29T14:54:41.175Z,28
2017-01-29T14:55:49.264Z,24
2017-01-29T14:56:57.358Z,24
2017-01-29T14:58:05.446Z,24
2017-01-29T14:59:13.551Z,20
2017-01-29T15:00:21.635Z,20
2017-01-29T15:01:29.724Z,20
2017-01-29T15:02:37.819Z,16
2017-01-29T15:03:45.908Z,16
2017-01-29T15:04:54.001Z,12
2017-01-29T15:06:02.096Z,12
2017-01-29T15:07:10.186Z,12
2017-01-29T15:08:18.277Z,12
2017-01-29T15:09:26.368Z,12
2017-01-29T15:10:34.464Z,8
2017-01-29T15:11:42.556Z,12
2017-01-29T15:12:50.649Z,12
2017-01-29T15:13:58.739Z,12
2017-01-29T15:15:06.829Z,8
2017-01-29T15:16:14.920Z,8
2017-01-29T15:17:23.008Z,8
2017-01-29T15:18:31.105Z,8
2017-01-29T15:19:39.197Z,12
2017-01-29T15:20:47.283Z,12
2017-01-29T15:21:55.380Z,8
2017-01-29T15:23:03.474Z,8
2017-01-29T15:24:11.567Z,8
2017-01-29T15:25:19.657Z,8
2017-01-29T15:26:27.742Z,8
2017-01-29T15:27:35.833Z,4
2017-01-29T15:28:43.924Z,8
2017-01-29T15:29:52.013Z,8
2017-01-29T15:31:00.109Z,8
2017-01-29T15:32:08.206Z,8
2017-01-29T15:33:16.293Z,8
2017-01-29T15:34:24.386Z,4
2017-01-29T15:35:32.477Z,8
2017-01-29T15:36:40.569Z,8
2017-01-29T15:37:48.656Z,8
2017-01-29T15:38:56.753Z,8
2017-01-29T15:40:04.841Z,8
2017-01-29T15:41:12.930Z,8
2017-01-29T15:42:21.026Z,4
2017-01-29T15:43:29.121Z,4
2017-01-29T15:44:37.211Z,4
2017-01-29T15:45:45.299Z,8
2017-01-29T15:46:53.393Z,8
2017-01-29T15:48:01.488Z,4
2017-01-29T15:49:09.574Z,4
2017-01-29T15:50:17.675Z,4
2017-01-29T15:51:25.765Z,4
2017-01-29T15:52:33.856Z,4
2017-01-29T15:53:41.944Z,4
2017-01-29T15:54:50.039Z,4
2017-01-29T15:55:58.130Z,4
2017-01-29T15:57:06.221Z,4
2017-01-29T15:58:14.318Z,4
2017-01-29T15:59:22.416Z,4
2017-01-29T16:00:30.508Z,4
2017-01-29T16:01:38.594Z,4
2017-01-29T16:02:46.688Z,0
2017-01-29T16:03:54.813Z,4
2017-01-29T16:05:02.872Z,4
2017-01-29T16:06:10.969Z,4
2017-01-29T16:07:19.060Z,0
2017-01-29T16:08:27.159Z,0
2017-01-29T16:09:35.247Z,4
2017-01-29T16:10:43.340Z,4
2017-01-29T16:11:51.438Z,0
2017-01-29T16:13:00.106Z,0
2017-01-29T16:14:07.622Z,0
2017-01-29T16:15:15.877Z,0
2017-01-29T16:16:24.287Z,0
2017-01-29T16:17:31.899Z,4
2017-01-29T16:18:39.990Z,0
2017-01-29T16:19:48.077Z,0
2017-01-29T16:20:56.213Z,0
2017-01-29T16:22:04.264Z,0
2017-01-29T16:23:12.353Z,0
2017-01-29T16:24:20.452Z,0
2017-01-29T16:25:28.542Z,0
2017-01-29T16:26:36.638Z,0
2017-01-29T16:27:44.729Z,0
2017-01-29T16:28:52.823Z,0
2017-01-29T16:30:00.915Z,0